Terminal Aerodrome Forecast
Issued by NWS

Home | Current Version | Previous Version | Text Only | Print | Product List | Glossary On
Versions: 1 2 3 4 5 6 7 8 9 10 11 12 13 14 15 16
000
FTUS43 KSGF 272331
TAFBBG
TAF
KBBG 272331Z 2800/2824 VRB03KT P6SM VCSH SCT040 BKN090
      TEMPO 2802/2805 BKN025
     FM280500 32005KT P6SM BKN035 OVC110
     FM281000 36004KT 6SM BR SCT007 BKN015 OVC025
      TEMPO 2810/2814 BKN007 OVC015
     FM281700 01008KT P6SM SCT035=

USA.gov is the U.S. government's official web portal to all federal, state and local government web resources and services.